Buoy 46770

sailwx.info

Track history (hours):
 
Tides and Currents Weather Stations Pressure Air Temp Water Temp Dewpoint Dewpoint Depression Visibility Wind Speed Wind Dir Waves Ship Positions

Drifting buoy 46770

Last reported at 2015-Jan-26 08:30 UTC. Time now 2015-Jan-26 10:30 UTC.
Position N 52°04' E 179°16'.

Barometer 993.8 mb
Water temperature 4.2 ° C

Date/timePositionNaut miles runAvg speedWind from/ knotsBaromVisibWave heightAir tempDewpointWater temp
2015-Jan-26 08:30N 52°04' E 179°16'2 0.5 993.8 4.2
2015-Jan-26 03:30N 52°02' E 179°18'0 0.0 992.8 4.2
2015-Jan-26 01:30N 52°02' E 179°18'1 0.4 992.6 4.2
2015-Jan-25 23:30N 52°02' E 179°19'0 0.2 993.1 4.2
2015-Jan-25 22:30N 52°02' E 179°19'1 0.1 993.3 4.2
2015-Jan-25 17:30N 52°02' E 179°18'4 2.1 993.3 4.2
2015-Jan-25 15:30N 51°58' E 179°18'0 0.0 993.8 4.2
2015-Jan-25 14:30N 51°58' E 179°18'2 0.9 994.2 4.2
2015-Jan-25 12:30N 51°59' E 179°21'0 0.0 994.7 4.2
2015-Jan-25 11:30N 51°59' E 179°21'0 0.2 995.0 4.2
2015-Jan-25 09:30N 51°59' E 179°22'0 0.1 995.6 4.1
2015-Jan-25 07:30N 51°59' E 179°21'2 2.2 996.3 4.1
2015-Jan-25 06:30N 51°59' E 179°25'1 0.4 996.6 4.1
2015-Jan-25 04:30N 51°60' E 179°26'1 1.0 997.2 4.2
2015-Jan-25 03:30N 52°01' E 179°27'3 1.0 997.4 4.2
2015-Jan-25 00:30N 52°03' E 179°29'0 0.0 999.9 4.2
2015-Jan-24 23:30N 52°03' E 179°29'3 1.0 1000.7 4.2
2015-Jan-24 20:30N 52°03' E 179°24'4 1.2 1002.8 4.1
2015-Jan-24 17:30N 52°00' E 179°21'1 1.2 1004.2 4.1
2015-Jan-24 16:30N 51°59' E 179°19'3 2.6 1004.6 4.1
2015-Jan-24 15:30N 51°57' E 179°19'0 0.0 1005.2 4.1
2015-Jan-24 14:30N 51°57' E 179°19'2 1.2 1006.0 4.1
2015-Jan-24 12:30N 51°55' E 179°18'2 0.6 1007.4 4.1
2015-Jan-24 09:30N 51°53' E 179°20'0 0.1 1009.3 4.1
2015-Jan-24 08:30N 51°53' E 179°20'1 0.7 1009.6 4.1
2015-Jan-24 07:30N 51°54' E 179°20'0 0.0 1009.8 4.0
2015-Jan-24 06:30N 51°54' E 179°20'1 1.3 1010.2 4.1
2015-Jan-24 05:30N 51°55' E 179°22'0 0.0 1010.6 4.1
2015-Jan-24 03:30N 51°55' E 179°22'0 0.3 1010.9 4.2
2015-Jan-24 02:30N 51°55' E 179°21'1 0.4 1010.8 4.2
2015-Jan-24 00:30N 51°56' E 179°21'1 0.3 1011.8 4.3
2015-Jan-23 21:30N 51°56' E 179°19'3 0.7 1012.8 4.1
2015-Jan-23 17:30N 51°53' E 179°18'0 0.3 1011.3 4.1
2015-Jan-23 16:30N 51°53' E 179°18'1 0.5 1011.4 4.1
2015-Jan-23 14:30N 51°52' E 179°18'2 0.3 1011.4 4.1
2015-Jan-23 05:30N 51°51' E 179°14'0 0.0 1005.3 4.0
2015-Jan-23 04:30N 51°51' E 179°14'1 0.5 1004.5 4.0
2015-Jan-23 03:30N 51°51' E 179°13'0 0.2 1003.5 4.0
2015-Jan-23 02:30N 51°51' E 179°13'2 0.8 1003.0 4.0
2015-Jan-23 00:30N 51°52' E 179°11'3 0.4 1001.7 4.1
2015-Jan-22 16:30N 51°49' E 179°07'2 1.1 996.3 4.1
2015-Jan-22 14:30N 51°51' E 179°04'0 0.0 995.1 4.1
2015-Jan-22 13:30N 51°51' E 179°04'3 0.5 994.9 4.1
2015-Jan-22 06:30N 51°54' E 179°02'0 0.2 993.6 4.1
2015-Jan-22 04:30N 51°54' E 179°02'0 0.4 992.5 4.1
2015-Jan-22 03:30N 51°54' E 179°02'1 0.6 992.0 4.1
2015-Jan-22 02:30N 51°54' E 179°03'1 0.7 991.4 4.1
2015-Jan-22 00:30N 51°55' E 179°05'1 0.8 991.1 4.1
2015-Jan-21 23:30N 51°55' E 179°06'1 0.1 990.7 4.1
2015-Jan-21 18:30N 51°55' E 179°07'9 1.9 989.7 4.1
2015-Jan-21 13:30N 51°47' E 179°15'3 0.3 989.3 4.1
2015-Jan-21 04:30N 51°49' E 179°12'2 0.4 990.3 4.3
2015-Jan-20 23:30N 51°48' E 179°08'0 0.0 990.7 4.1
2015-Jan-20 22:30N 51°48' E 179°08'1 0.3 991.1 4.1
2015-Jan-20 18:30N 51°48' E 179°06'4 0.7 990.2 4.2
2015-Jan-20 13:30N 51°46' E 179°03'2 0.4 990.3 4.0
2015-Jan-20 08:30N 51°47' E 179°02'4 1.8 990.5 4.0
2015-Jan-20 06:30N 51°49' E 178°57'1 0.3 990.7 4.0
2015-Jan-20 02:30N 51°50' E 178°55'1 1.2 990.5 4.1
2015-Jan-20 01:30N 51°51' E 178°54'3 0.7 990.4 4.1
2015-Jan-19 21:30N 51°54' E 178°52'0 0.1 992.2 4.0
2015-Jan-19 18:30N 51°54' E 178°52'1 1.0 991.8 4.1
2015-Jan-19 17:30N 51°54' E 178°50'1 0.3 991.9 4.1
2015-Jan-19 15:30N 51°53' E 178°50'0 0.0 991.5 4.2
2015-Jan-19 14:30N 51°53' E 178°50'3 0.6 991.8 4.2
2015-Jan-19 09:30N 51°55' E 178°54'1 0.5 993.2 4.0
2015-Jan-19 07:30N 51°56' E 178°53'2 0.6 992.7 4.2
2015-Jan-19 03:30N 51°58' E 178°51'1 0.5 993.7 4.2
2015-Jan-19 01:30N 51°58' E 178°50'1 1.3 993.6 4.1
2015-Jan-19 00:30N 51°60' E 178°50'2 1.9 993.8 4.1
2015-Jan-18 23:30N 52°01' E 178°48'1 0.3 993.8 4.1
2015-Jan-18 18:30N 52°02' E 178°47'0 0.2 993.6 4.1
2015-Jan-18 17:30N 52°02' E 178°47'0 0.0 993.9 4.1
2015-Jan-18 16:30N 52°02' E 178°47'1 0.9 993.9 4.2
2015-Jan-18 15:30N 52°01' E 178°48'0 0.0 993.7 4.2
2015-Jan-18 11:30N 52°01' E 178°48'4 0.6 994.2 4.1
2015-Jan-18 04:30N 52°04' E 178°42'1 0.5 994.8 4.1
2015-Jan-18 03:30N 52°04' E 178°42'1 1.3 994.7 4.1
2015-Jan-18 02:30N 52°05' E 178°41'1 0.4 994.7 4.1
2015-Jan-17 23:30N 52°06' E 178°40'1 1.4 995.6 4.2
2015-Jan-17 22:30N 52°07' E 178°38'0 0.0 995.9 4.2
2015-Jan-17 21:30N 52°07' E 178°38'0 0.1 996.2 4.2
2015-Jan-17 17:30N 52°07' E 178°38'1 0.6 996.7 4.1
2015-Jan-17 15:30N 52°06' E 178°38'0 0.2 997.3 4.1
2015-Jan-17 14:30N 52°06' E 178°37'1 1.0 997.7 4.1
2015-Jan-17 13:30N 52°06' E 178°36'1 1.3 997.4 4.1
2015-Jan-17 12:30N 52°06' E 178°34'0 0.0 997.7 4.2
2015-Jan-17 09:30N 52°06' E 178°34'1 1.2 998.0 4.2
2015-Jan-17 08:30N 52°06' E 178°32'1 0.3 997.9 4.2
2015-Jan-17 06:30N 52°07' E 178°31'1 0.3 997.7 4.3
2015-Jan-17 03:30N 52°08' E 178°30'1 0.6 997.0 4.3
2015-Jan-17 01:30N 52°09' E 178°29'1 0.4 996.5 4.3
2015-Jan-16 23:30N 52°09' E 178°28'0 0.2 996.7 4.3
2015-Jan-16 22:30N 52°09' E 178°28'2 0.4 996.6 4.3
2015-Jan-16 18:30N 52°09' E 178°25'0 0.1 995.1 4.3
2015-Jan-16 15:30N 52°09' E 178°24'1 0.8 994.2 4.3
2015-Jan-16 14:30N 52°09' E 178°23'2 0.8 994.0 4.3
2015-Jan-16 12:30N 52°09' E 178°21'   993.4 4.3
Track history (hours):
 
Tides and Currents Weather Stations Pressure Air Temp Water Temp Dewpoint Dewpoint Depression Visibility Wind Speed Wind Dir Waves Ship Positions

Drifting buoy 46770

Last reported at 2015-Jan-26 08:30 UTC. Time now 2015-Jan-26 10:30 UTC.
Position N 52°04' E 179°16'.

Barometer 993.8 mb
Water temperature 4.2 ° C

Date/timePositionNaut miles runAvg speedWind from/ knotsBaromVisibWave heightAir tempDewpointWater temp
2015-Jan-26 08:30N 52°04' E 179°16'2 0.5 993.8 4.2
2015-Jan-26 03:30N 52°02' E 179°18'0 0.0 992.8 4.2
2015-Jan-26 01:30N 52°02' E 179°18'1 0.4 992.6 4.2
2015-Jan-25 23:30N 52°02' E 179°19'0 0.2 993.1 4.2
2015-Jan-25 22:30N 52°02' E 179°19'1 0.1 993.3 4.2
2015-Jan-25 17:30N 52°02' E 179°18'4 2.1 993.3 4.2
2015-Jan-25 15:30N 51°58' E 179°18'0 0.0 993.8 4.2
2015-Jan-25 14:30N 51°58' E 179°18'2 0.9 994.2 4.2
2015-Jan-25 12:30N 51°59' E 179°21'0 0.0 994.7 4.2
2015-Jan-25 11:30N 51°59' E 179°21'0 0.2 995.0 4.2
2015-Jan-25 09:30N 51°59' E 179°22'0 0.1 995.6 4.1
2015-Jan-25 07:30N 51°59' E 179°21'2 2.2 996.3 4.1
2015-Jan-25 06:30N 51°59' E 179°25'1 0.4 996.6 4.1
2015-Jan-25 04:30N 51°60' E 179°26'1 1.0 997.2 4.2
2015-Jan-25 03:30N 52°01' E 179°27'3 1.0 997.4 4.2
2015-Jan-25 00:30N 52°03' E 179°29'0 0.0 999.9 4.2
2015-Jan-24 23:30N 52°03' E 179°29'3 1.0 1000.7 4.2
2015-Jan-24 20:30N 52°03' E 179°24'4 1.2 1002.8 4.1
2015-Jan-24 17:30N 52°00' E 179°21'1 1.2 1004.2 4.1
2015-Jan-24 16:30N 51°59' E 179°19'3 2.6 1004.6 4.1
2015-Jan-24 15:30N 51°57' E 179°19'0 0.0 1005.2 4.1
2015-Jan-24 14:30N 51°57' E 179°19'2 1.2 1006.0 4.1
2015-Jan-24 12:30N 51°55' E 179°18'2 0.6 1007.4 4.1
2015-Jan-24 09:30N 51°53' E 179°20'0 0.1 1009.3 4.1
2015-Jan-24 08:30N 51°53' E 179°20'1 0.7 1009.6 4.1
2015-Jan-24 07:30N 51°54' E 179°20'0 0.0 1009.8 4.0
2015-Jan-24 06:30N 51°54' E 179°20'1 1.3 1010.2 4.1
2015-Jan-24 05:30N 51°55' E 179°22'0 0.0 1010.6 4.1
2015-Jan-24 03:30N 51°55' E 179°22'0 0.3 1010.9 4.2
2015-Jan-24 02:30N 51°55' E 179°21'1 0.4 1010.8 4.2
2015-Jan-24 00:30N 51°56' E 179°21'1 0.3 1011.8 4.3
2015-Jan-23 21:30N 51°56' E 179°19'3 0.7 1012.8 4.1
2015-Jan-23 17:30N 51°53' E 179°18'0 0.3 1011.3 4.1
2015-Jan-23 16:30N 51°53' E 179°18'1 0.5 1011.4 4.1
2015-Jan-23 14:30N 51°52' E 179°18'2 0.3 1011.4 4.1
2015-Jan-23 05:30N 51°51' E 179°14'0 0.0 1005.3 4.0
2015-Jan-23 04:30N 51°51' E 179°14'1 0.5 1004.5 4.0
2015-Jan-23 03:30N 51°51' E 179°13'0 0.2 1003.5 4.0
2015-Jan-23 02:30N 51°51' E 179°13'2 0.8 1003.0 4.0
2015-Jan-23 00:30N 51°52' E 179°11'3 0.4 1001.7 4.1
2015-Jan-22 16:30N 51°49' E 179°07'2 1.1 996.3 4.1
2015-Jan-22 14:30N 51°51' E 179°04'0 0.0 995.1 4.1
2015-Jan-22 13:30N 51°51' E 179°04'3 0.5 994.9 4.1
2015-Jan-22 06:30N 51°54' E 179°02'0 0.2 993.6 4.1
2015-Jan-22 04:30N 51°54' E 179°02'0 0.4 992.5 4.1
2015-Jan-22 03:30N 51°54' E 179°02'1 0.6 992.0 4.1
2015-Jan-22 02:30N 51°54' E 179°03'1 0.7 991.4 4.1
2015-Jan-22 00:30N 51°55' E 179°05'1 0.8 991.1 4.1
2015-Jan-21 23:30N 51°55' E 179°06'1 0.1 990.7 4.1
2015-Jan-21 18:30N 51°55' E 179°07'9 1.9 989.7 4.1
2015-Jan-21 13:30N 51°47' E 179°15'3 0.3 989.3 4.1
2015-Jan-21 04:30N 51°49' E 179°12'2 0.4 990.3 4.3
2015-Jan-20 23:30N 51°48' E 179°08'0 0.0 990.7 4.1
2015-Jan-20 22:30N 51°48' E 179°08'1 0.3 991.1 4.1
2015-Jan-20 18:30N 51°48' E 179°06'4 0.7 990.2 4.2
2015-Jan-20 13:30N 51°46' E 179°03'2 0.4 990.3 4.0
2015-Jan-20 08:30N 51°47' E 179°02'4 1.8 990.5 4.0
2015-Jan-20 06:30N 51°49' E 178°57'1 0.3 990.7 4.0
2015-Jan-20 02:30N 51°50' E 178°55'1 1.2 990.5 4.1
2015-Jan-20 01:30N 51°51' E 178°54'3 0.7 990.4 4.1
2015-Jan-19 21:30N 51°54' E 178°52'0 0.1 992.2 4.0
2015-Jan-19 18:30N 51°54' E 178°52'1 1.0 991.8 4.1
2015-Jan-19 17:30N 51°54' E 178°50'1 0.3 991.9 4.1
2015-Jan-19 15:30N 51°53' E 178°50'0 0.0 991.5 4.2
2015-Jan-19 14:30N 51°53' E 178°50'3 0.6 991.8 4.2
2015-Jan-19 09:30N 51°55' E 178°54'1 0.5 993.2 4.0
2015-Jan-19 07:30N 51°56' E 178°53'2 0.6 992.7 4.2
2015-Jan-19 03:30N 51°58' E 178°51'1 0.5 993.7 4.2
2015-Jan-19 01:30N 51°58' E 178°50'1 1.3 993.6 4.1
2015-Jan-19 00:30N 51°60' E 178°50'2 1.9 993.8 4.1
2015-Jan-18 23:30N 52°01' E 178°48'1 0.3 993.8 4.1
2015-Jan-18 18:30N 52°02' E 178°47'0 0.2 993.6 4.1
2015-Jan-18 17:30N 52°02' E 178°47'0 0.0 993.9 4.1
2015-Jan-18 16:30N 52°02' E 178°47'1 0.9 993.9 4.2
2015-Jan-18 15:30N 52°01' E 178°48'0 0.0 993.7 4.2
2015-Jan-18 11:30N 52°01' E 178°48'4 0.6 994.2 4.1
2015-Jan-18 04:30N 52°04' E 178°42'1 0.5 994.8 4.1
2015-Jan-18 03:30N 52°04' E 178°42'1 1.3 994.7 4.1
2015-Jan-18 02:30N 52°05' E 178°41'1 0.4 994.7 4.1
2015-Jan-17 23:30N 52°06' E 178°40'1 1.4 995.6 4.2
2015-Jan-17 22:30N 52°07' E 178°38'0 0.0 995.9 4.2
2015-Jan-17 21:30N 52°07' E 178°38'0 0.1 996.2 4.2
2015-Jan-17 17:30N 52°07' E 178°38'1 0.6 996.7 4.1
2015-Jan-17 15:30N 52°06' E 178°38'0 0.2 997.3 4.1
2015-Jan-17 14:30N 52°06' E 178°37'1 1.0 997.7 4.1
2015-Jan-17 13:30N 52°06' E 178°36'1 1.3 997.4 4.1
2015-Jan-17 12:30N 52°06' E 178°34'0 0.0 997.7 4.2
2015-Jan-17 09:30N 52°06' E 178°34'1 1.2 998.0 4.2
2015-Jan-17 08:30N 52°06' E 178°32'1 0.3 997.9 4.2
2015-Jan-17 06:30N 52°07' E 178°31'1 0.3 997.7 4.3
2015-Jan-17 03:30N 52°08' E 178°30'1 0.6 997.0 4.3
2015-Jan-17 01:30N 52°09' E 178°29'1 0.4 996.5 4.3
2015-Jan-16 23:30N 52°09' E 178°28'0 0.2 996.7 4.3
2015-Jan-16 22:30N 52°09' E 178°28'2 0.4 996.6 4.3
2015-Jan-16 18:30N 52°09' E 178°25'0 0.1 995.1 4.3
2015-Jan-16 15:30N 52°09' E 178°24'1 0.8 994.2 4.3
2015-Jan-16 14:30N 52°09' E 178°23'2 0.8 994.0 4.3
2015-Jan-16 12:30N 52°09' E 178°21'   993.4 4.3

Dump ship's entire track history